Time,TemperatureF,DewpointF,PressureIn,WindDirection,WindDirectionDegrees,WindSpeedMPH,WindSpeedGustMPH,Humidity,HourlyPrecipIn,Conditions,Clouds,dailyrainin,SoftwareType,DateUTC
2013-05-16 00:03:00,40.0,13.0,29.02,SSW,196,0.0,3.0,33,0.00,,,0.00,,2013-05-16 08:03:00,
2013-05-16 00:13:00,40.0,13.0,29.02,SSW,200,0.0,3.0,33,0.00,,,0.00,,2013-05-16 08:13:00,
2013-05-16 00:23:00,40.0,13.0,29.02,SSW,200,0.0,3.0,33,0.00,,,0.00,,2013-05-16 08:23:00,
2013-05-16 00:34:00,39.0,14.0,29.02,SSW,200,0.0,0.0,35,0.00,,,0.00,,2013-05-16 08:34:00,
2013-05-16 00:44:00,38.0,13.0,29.02,SSW,200,0.0,0.0,35,0.00,,,0.00,,2013-05-16 08:44:00,
2013-05-16 00:54:00,38.0,13.0,29.02,SSW,200,0.0,0.0,35,0.00,,,0.00,,2013-05-16 08:54:00,
2013-05-16 01:03:00,38.0,13.0,29.02,SSW,200,0.0,0.0,36,0.00,,,0.00,,2013-05-16 09:03:00,
2013-05-16 01:14:00,37.0,13.0,29.02,SSW,200,0.0,0.0,37,0.00,,,0.00,,2013-05-16 09:14:00,
2013-05-16 01:23:00,37.0,13.0,29.02,SSW,200,0.0,0.0,37,0.00,,,0.00,,2013-05-16 09:23:00,
2013-05-16 01:35:00,37.0,14.0,29.03,SSW,200,0.0,0.0,39,0.00,,,0.00,,2013-05-16 09:35:00,
2013-05-16 01:45:00,36.0,14.0,29.03,SSW,200,0.0,0.0,40,0.00,,,0.00,,2013-05-16 09:45:00,
2013-05-16 01:55:00,36.0,14.0,29.03,SSW,200,0.0,0.0,40,0.00,,,0.00,,2013-05-16 09:55:00,
2013-05-16 02:04:00,36.0,14.0,29.03,SSW,200,0.0,0.0,40,0.00,,,0.00,,2013-05-16 10:04:00,
2013-05-16 02:14:00,36.0,14.0,29.03,SSW,200,0.0,0.0,40,0.00,,,0.00,,2013-05-16 10:14:00,
2013-05-16 02:24:00,36.0,14.0,29.03,SSW,200,0.0,0.0,40,0.00,,,0.00,,2013-05-16 10:24:00,
2013-05-16 02:35:00,36.0,14.0,29.03,SSW,200,0.0,0.0,40,0.00,,,0.00,,2013-05-16 10:35:00,
2013-05-16 02:45:00,36.0,14.0,29.03,SSW,200,0.0,0.0,40,0.00,,,0.00,,2013-05-16 10:45:00,
2013-05-16 02:56:00,36.0,14.0,29.03,SSW,200,0.0,0.0,40,0.00,,,0.00,,2013-05-16 10:56:00,
2013-05-16 03:05:00,36.0,14.0,29.03,SSW,200,0.0,0.0,40,0.00,,,0.00,,2013-05-16 11:05:00,
2013-05-16 03:14:00,36.0,14.0,29.03,SSW,200,0.0,0.0,40,0.00,,,0.00,,2013-05-16 11:14:00,
2013-05-16 03:25:00,36.0,15.0,29.03,SSW,200,0.0,0.0,41,0.00,,,0.00,,2013-05-16 11:25:00,
2013-05-16 03:35:00,35.0,14.0,29.03,SSW,200,0.0,0.0,41,0.00,,,0.00,,2013-05-16 11:35:00,
2013-05-16 03:45:00,35.0,14.0,29.03,SSW,200,0.0,0.0,41,0.00,,,0.00,,2013-05-16 11:45:00,
2013-05-16 03:56:00,35.0,15.0,29.03,SSW,200,0.0,0.0,43,0.00,,,0.00,,2013-05-16 11:56:00,
2013-05-16 04:05:00,34.0,15.0,29.03,East,99,0.0,0.0,45,0.00,,,0.00,,2013-05-16 12:05:00,
2013-05-16 04:13:00,34.0,15.0,29.03,East,99,0.0,0.0,45,0.00,,,0.00,,2013-05-16 12:13:00,
2013-05-16 04:23:00,34.0,16.0,29.03,East,99,0.0,0.0,47,0.00,,,0.00,,2013-05-16 12:23:00,
2013-05-16 04:34:00,33.0,15.0,29.03,East,99,0.0,0.0,47,0.00,,,0.00,,2013-05-16 12:34:00,
2013-05-16 04:44:00,33.0,15.0,29.03,East,99,0.0,0.0,47,0.00,,,0.00,,2013-05-16 12:44:00,
2013-05-16 04:53:00,33.0,16.0,29.03,East,99,0.0,0.0,49,0.00,,,0.00,,2013-05-16 12:53:00,
2013-05-16 05:04:00,33.0,16.0,29.03,East,99,0.0,0.0,49,0.00,,,0.00,,2013-05-16 13:04:00,
2013-05-16 05:11:00,33.0,16.0,29.03,East,99,0.0,0.0,49,0.00,,,0.00,,2013-05-16 13:11:00,
2013-05-16 05:26:00,33.0,16.0,29.03,East,99,0.0,0.0,49,0.00,,,0.00,,2013-05-16 13:26:00,
2013-05-16 05:35:00,33.0,17.0,29.03,East,99,0.0,0.0,51,0.00,,,0.00,,2013-05-16 13:35:00,
2013-05-16 05:43:00,33.0,17.0,29.03,East,99,0.0,0.0,51,0.00,,,0.00,,2013-05-16 13:43:00,
2013-05-16 05:55:00,33.0,16.0,29.03,East,99,0.0,0.0,50,0.00,,,0.00,,2013-05-16 13:55:00,
2013-05-16 06:04:00,32.0,15.0,29.03,East,99,0.0,0.0,50,0.00,,,0.00,,2013-05-16 14:04:00,
2013-05-16 06:15:00,32.0,16.0,29.02,East,99,0.0,0.0,51,0.00,,,0.00,,2013-05-16 14:15:00,
2013-05-16 06:23:00,32.0,16.0,29.02,East,99,0.0,0.0,51,0.00,,,0.00,,2013-05-16 14:23:00,
2013-05-16 06:36:00,32.0,16.0,29.02,East,99,0.0,0.0,51,0.00,,,0.00,,2013-05-16 14:36:00,
2013-05-16 06:47:00,32.0,16.0,29.02,East,99,0.0,0.0,51,0.00,,,0.00,,2013-05-16 14:47:00,
2013-05-16 06:56:00,32.0,16.0,29.02,East,99,0.0,0.0,51,0.00,,,0.00,,2013-05-16 14:56:00,
2013-05-16 07:08:00,33.0,16.0,29.02,East,99,0.0,0.0,50,0.00,,,0.00,,2013-05-16 15:08:00,
2013-05-16 07:17:00,33.0,17.0,29.02,East,99,0.0,0.0,51,0.00,,,0.00,,2013-05-16 15:17:00,
2013-05-16 07:28:00,33.0,17.0,29.02,East,99,0.0,0.0,51,0.00,,,0.00,,2013-05-16 15:28:00,
2013-05-16 07:40:00,33.0,16.0,29.01,East,99,0.0,0.0,50,0.00,,,0.00,,2013-05-16 15:40:00,
2013-05-16 07:50:00,34.0,18.0,29.01,WSW,239,0.0,0.0,52,0.00,,,0.00,,2013-05-16 15:50:00,
2013-05-16 08:00:00,34.0,18.0,29.01,WSW,239,0.0,0.0,52,0.00,,,0.00,,2013-05-16 16:00:00,
2013-05-16 08:09:00,35.0,19.0,29.01,WSW,239,0.0,0.0,52,0.00,,,0.00,,2013-05-16 16:09:00,
2013-05-16 08:19:00,35.0,19.0,29.01,WSW,239,0.0,0.0,52,0.00,,,0.00,,2013-05-16 16:19:00,
2013-05-16 08:30:00,35.0,20.0,29.01,WSW,237,0.0,0.0,53,0.00,,,0.00,,2013-05-16 16:30:00,
2013-05-16 08:40:00,36.0,-99.9,29.00,WSW,237,0.0,0.0,53,0.00,,,0.00,,2013-05-16 16:40:00,
2013-05-16 08:50:00,36.0,21.0,29.00,WSW,237,0.0,0.0,53,0.00,,,0.00,,2013-05-16 16:50:00,
2013-05-16 09:00:00,38.0,21.0,29.00,ENE,58,0.0,1.0,49,0.00,,,0.00,,2013-05-16 17:00:00,
2013-05-16 09:10:00,41.0,21.0,29.00,NE,34,0.0,1.0,44,0.00,,,0.00,,2013-05-16 17:10:00,
2013-05-16 09:20:00,41.0,21.0,29.00,NE,34,0.0,1.0,44,0.00,,,0.00,,2013-05-16 17:20:00,
2013-05-16 09:30:00,43.0,22.0,29.00,East,83,0.0,1.0,42,0.00,,,0.00,,2013-05-16 17:30:00,
2013-05-16 09:40:00,44.0,21.0,28.99,NE,53,0.0,1.0,39,0.00,,,0.00,,2013-05-16 17:40:00,
2013-05-16 09:50:00,45.0,-99.9,28.99,East,97,0.0,1.0,38,0.00,,,0.00,,2013-05-16 17:50:00,
2013-05-16 10:00:00,45.0,-99.9,28.99,East,97,0.0,1.0,38,0.00,,,0.00,,2013-05-16 18:00:00,
2013-05-16 10:10:00,45.0,21.0,28.98,SE,137,0.0,1.0,38,0.00,,,0.00,,2013-05-16 18:10:00,
2013-05-16 10:20:00,45.0,21.0,28.98,SE,137,0.0,1.0,38,0.00,,,0.00,,2013-05-16 18:20:00,
2013-05-16 10:30:00,-999.0,-99.9,28.98,SE,137,0.0,1.0,38,0.00,,,0.00,,2013-05-16 18:30:00,
2013-05-16 10:40:00,-999.0,-99.9,28.97,SE,133,0.0,1.0,36,0.00,,,0.00,,2013-05-16 18:40:00,
2013-05-16 10:50:00,-999.0,-99.9,28.97,SE,133,0.0,1.0,36,0.00,,,0.00,,2013-05-16 18:50:00,
2013-05-16 11:00:00,-999.0,-99.9,28.97,ESE,122,0.0,1.0,36,0.00,,,0.00,,2013-05-16 19:00:00,
2013-05-16 11:10:00,47.0,20.0,28.96,SE,129,0.0,1.0,34,0.00,,,0.00,,2013-05-16 19:10:00,
2013-05-16 11:20:00,47.0,20.0,28.96,SE,129,0.0,1.0,34,0.00,,,0.00,,2013-05-16 19:20:00,
2013-05-16 11:30:00,47.0,19.0,28.95,ESE,122,0.0,1.0,33,0.00,,,0.00,,2013-05-16 19:30:00,
2013-05-16 11:40:00,49.0,-99.9,28.95,SE,128,0.0,1.0,31,0.00,,,0.00,,2013-05-16 19:40:00,
2013-05-16 11:50:00,49.0,-99.9,28.95,SE,128,0.0,1.0,31,0.00,,,0.00,,2013-05-16 19:50:00,
2013-05-16 12:00:00,50.0,-99.9,28.94,SSE,152,0.0,1.0,30,0.00,,,0.00,,2013-05-16 20:00:00,
2013-05-16 12:10:00,-999.0,-99.9,28.94,SE,139,0.0,1.0,27,0.00,,,0.00,,2013-05-16 20:10:00,
2013-05-16 12:20:00,51.0,19.0,28.93,SE,142,0.0,1.0,28,0.00,,,0.00,,2013-05-16 20:20:00,
2013-05-16 12:30:00,51.0,19.0,28.93,SE,142,0.0,1.0,28,0.00,,,0.00,,2013-05-16 20:30:00,
2013-05-16 12:40:00,-999.0,-99.9,28.92,ESE,108,0.0,1.0,26,0.00,,,0.00,,2013-05-16 20:40:00,
2013-05-16 12:50:00,51.0,18.0,28.92,South,182,0.0,1.0,27,0.00,,,0.00,,2013-05-16 20:50:00,
2013-05-16 13:00:00,51.0,18.0,28.92,South,182,0.0,1.0,27,0.00,,,0.00,,2013-05-16 21:00:00,
2013-05-16 13:10:00,52.0,-99.9,28.91,ESE,103,0.0,1.0,27,0.00,,,0.00,,2013-05-16 21:10:00,
2013-05-16 13:20:00,52.0,19.0,28.91,ESE,103,0.0,1.0,27,0.00,,,0.00,,2013-05-16 21:20:00,
2013-05-16 13:29:00,52.0,18.0,28.91,SSE,154,0.0,1.0,26,0.00,,,0.00,,2013-05-16 21:29:00,
2013-05-16 13:38:00,53.0,19.0,28.90,East,80,0.0,1.0,26,0.00,,,0.00,,2013-05-16 21:38:00,
2013-05-16 13:50:00,53.0,19.0,28.90,East,80,0.0,1.0,26,0.00,,,0.00,,2013-05-16 21:50:00,
2013-05-16 14:00:00,-999.0,-99.9,28.90,SE,138,0.0,1.0,27,0.00,,,0.00,,2013-05-16 22:00:00,
2013-05-16 14:07:00,53.0,19.0,28.90,SE,142,0.0,1.0,26,0.00,,,0.00,,2013-05-16 22:07:00,
2013-05-16 14:20:00,53.0,19.0,28.90,SE,142,0.0,1.0,26,0.00,,,0.00,,2013-05-16 22:20:00,
2013-05-16 14:30:00,53.0,20.0,28.89,South,173,0.0,1.0,27,0.00,,,0.00,,2013-05-16 22:30:00,
2013-05-16 14:40:00,53.0,20.0,28.89,SE,144,0.0,1.0,27,0.00,,,0.00,,2013-05-16 22:40:00,
2013-05-16 14:50:00,53.0,20.0,28.89,SE,144,0.0,1.0,27,0.00,,,0.00,,2013-05-16 22:50:00,
2013-05-16 15:00:00,54.0,19.0,28.88,SE,124,0.0,1.0,25,0.00,,,0.00,,2013-05-16 23:00:00,
2013-05-16 15:06:00,54.0,20.0,28.88,ESE,118,0.0,1.0,26,0.00,,,0.00,,2013-05-16 23:06:00,
2013-05-16 15:16:00,54.0,21.0,28.87,South,174,0.0,1.0,27,0.00,,,0.00,,2013-05-16 23:16:00,
2013-05-16 15:24:00,54.0,21.0,28.87,South,174,0.0,1.0,27,0.00,,,0.00,,2013-05-16 23:24:00,
2013-05-16 15:34:00,53.0,20.0,28.87,SE,138,0.0,1.0,27,0.00,,,0.00,,2013-05-16 23:34:00,
2013-05-16 15:45:00,53.0,20.0,28.87,SE,138,0.0,1.0,27,0.00,,,0.00,,2013-05-16 23:45:00,
2013-05-16 15:54:00,52.0,19.0,28.87,ESE,123,0.0,1.0,27,0.00,,,0.00,,2013-05-16 23:54:00,
2013-05-16 16:02:00,51.0,18.0,28.87,SE,126,0.0,1.0,27,0.00,,,0.00,,2013-05-17 00:02:00,
2013-05-16 16:13:00,51.0,18.0,28.87,SE,126,0.0,1.0,27,0.00,,,0.00,,2013-05-17 00:13:00,
2013-05-16 16:22:00,51.0,18.0,28.87,SE,135,0.0,1.0,27,0.00,,,0.00,,2013-05-17 00:22:00,
2013-05-16 16:33:00,51.0,19.0,28.86,SE,144,0.0,1.0,28,0.00,,,0.00,,2013-05-17 00:33:00,
2013-05-16 16:43:00,51.0,19.0,28.86,SE,144,0.0,1.0,28,0.00,,,0.00,,2013-05-17 00:43:00,
2013-05-16 16:53:00,51.0,19.0,28.86,ESE,119,0.0,1.0,28,0.00,,,0.00,,2013-05-17 00:53:00,
2013-05-16 17:03:00,51.0,19.0,28.85,SSE,164,0.0,1.0,28,0.00,,,0.00,,2013-05-17 01:03:00,
2013-05-16 17:11:00,51.0,19.0,28.85,SSE,164,0.0,1.0,28,0.00,,,0.00,,2013-05-17 01:11:00,
2013-05-16 17:23:00,50.0,19.0,28.85,SE,146,0.0,1.0,29,0.00,,,0.00,,2013-05-17 01:23:00,
2013-05-16 17:31:00,50.0,19.0,28.84,SE,146,0.0,1.0,29,0.00,,,0.00,,2013-05-17 01:31:00,
2013-05-16 17:43:00,50.0,19.0,28.84,SE,139,0.0,1.0,29,0.00,,,0.00,,2013-05-17 01:43:00,
2013-05-16 17:52:00,50.0,19.0,28.84,SE,139,0.0,1.0,29,0.00,,,0.00,,2013-05-17 01:52:00,
2013-05-16 18:01:00,50.0,19.0,28.83,SE,139,0.0,1.0,29,0.00,,,0.00,,2013-05-17 02:01:00,
2013-05-16 18:11:00,50.0,19.0,28.83,SE,139,0.0,1.0,29,0.00,,,0.00,,2013-05-17 02:11:00,
2013-05-16 18:21:00,50.0,20.0,28.83,SE,139,0.0,1.0,30,0.00,,,0.00,,2013-05-17 02:21:00,
2013-05-16 18:32:00,50.0,20.0,28.82,SE,139,0.0,1.0,30,0.00,,,0.00,,2013-05-17 02:32:00,
2013-05-16 18:41:00,50.0,20.0,28.82,SE,139,0.0,1.0,30,0.00,,,0.00,,2013-05-17 02:41:00,
2013-05-16 18:53:00,50.0,20.0,28.82,SE,139,0.0,1.0,30,0.00,,,0.00,,2013-05-17 02:53:00,
2013-05-16 19:01:00,50.0,22.0,28.81,NNE,17,0.0,1.0,33,0.00,,,0.00,,2013-05-17 03:01:00,
2013-05-16 19:11:00,49.0,21.0,28.81,South,169,0.0,1.0,33,0.00,,,0.00,,2013-05-17 03:11:00,
2013-05-16 19:22:00,49.0,21.0,28.81,South,169,0.0,1.0,33,0.00,,,0.00,,2013-05-17 03:22:00,
2013-05-16 19:33:00,49.0,21.0,28.81,South,169,0.0,1.0,33,0.00,,,0.00,,2013-05-17 03:33:00,
2013-05-16 19:43:00,49.0,21.0,28.81,South,169,0.0,1.0,33,0.00,,,0.00,,2013-05-17 03:43:00,
2013-05-16 19:53:00,49.0,21.0,28.81,South,169,0.0,1.0,33,0.00,,,0.00,,2013-05-17 03:53:00,
2013-05-16 20:02:00,49.0,22.0,28.81,South,169,0.0,1.0,34,0.00,,,0.00,,2013-05-17 04:02:00,
2013-05-16 20:12:00,48.0,21.0,28.81,South,169,0.0,1.0,34,0.00,,,0.00,,2013-05-17 04:12:00,
2013-05-16 20:23:00,48.0,21.0,28.81,South,169,0.0,1.0,34,0.00,,,0.00,,2013-05-17 04:23:00,
2013-05-16 20:33:00,48.0,22.0,28.80,South,169,0.0,1.0,35,0.00,,,0.00,,2013-05-17 04:33:00,
2013-05-16 20:43:00,48.0,22.0,28.80,South,169,0.0,1.0,35,0.00,,,0.00,,2013-05-17 04:43:00,
2013-05-16 20:53:00,48.0,23.0,28.80,South,169,0.0,1.0,37,0.00,,,0.00,,2013-05-17 04:53:00,
2013-05-16 21:02:00,47.0,23.0,28.80,South,169,0.0,1.0,38,0.00,,,0.00,,2013-05-17 05:02:00,
2013-05-16 21:13:00,47.0,23.0,28.80,South,169,0.0,1.0,38,0.00,,,0.00,,2013-05-17 05:13:00,
2013-05-16 21:21:00,47.0,23.0,28.80,South,169,0.0,1.0,39,0.00,,,0.00,,2013-05-17 05:21:00,
2013-05-16 21:32:00,47.0,23.0,28.80,South,169,0.0,1.0,39,0.00,,,0.00,,2013-05-17 05:32:00,
2013-05-16 21:42:00,47.0,23.0,28.80,South,169,0.0,1.0,39,0.00,,,0.00,,2013-05-17 05:42:00,
2013-05-16 21:52:00,47.0,23.0,28.80,South,169,0.0,1.0,39,0.00,,,0.00,,2013-05-17 05:52:00,
2013-05-16 22:01:00,46.0,23.0,28.80,South,169,0.0,1.0,40,0.00,,,0.00,,2013-05-17 06:01:00,
2013-05-16 22:11:00,46.0,23.0,28.80,South,169,0.0,1.0,40,0.00,,,0.00,,2013-05-17 06:11:00,
2013-05-16 22:21:00,46.0,23.0,28.79,South,169,0.0,1.0,40,0.00,,,0.00,,2013-05-17 06:21:00,
2013-05-16 22:32:00,46.0,24.0,28.79,South,169,0.0,1.0,41,0.00,,,0.00,,2013-05-17 06:32:00,
2013-05-16 22:41:00,46.0,24.0,28.79,South,169,0.0,1.0,41,0.00,,,0.00,,2013-05-17 06:41:00,
2013-05-16 22:52:00,46.0,24.0,28.79,NE,56,0.0,1.0,42,0.00,,,0.00,,2013-05-17 06:52:00,
2013-05-16 23:02:00,45.0,23.0,28.79,NE,56,0.0,1.0,42,0.00,,,0.00,,2013-05-17 07:02:00,
2013-05-16 23:11:00,45.0,23.0,28.79,NE,56,0.0,1.0,42,0.00,,,0.00,,2013-05-17 07:11:00,
2013-05-16 23:21:00,45.0,24.0,28.78,NE,56,0.0,1.0,43,0.00,,,0.00,,2013-05-17 07:21:00,
2013-05-16 23:32:00,45.0,24.0,28.78,NE,56,0.0,1.0,43,0.00,,,0.00,,2013-05-17 07:32:00,
2013-05-16 23:43:00,44.0,23.0,28.78,NE,56,0.0,1.0,44,0.00,,,0.00,,2013-05-17 07:43:00,
2013-05-16 23:53:00,44.0,23.0,28.78,NE,56,0.0,1.0,44,0.00,,,0.00,,2013-05-17 07:53:00,